Stations météo

réclame
Mon MeteoGroup
Stockholm/Tullinge, Suède (2469): Température de l'air & dewpoint: 17.05.2018 22:00:00 - 23.05.2018 22:00:00 (CEST)Stockholm/Tullinge, Suède (2469): Vitesse du vent & gusts: 17.05.2018 22:00:00 - 23.05.2018 22:00:00 (CEST)Stockholm/Tullinge, Suède (2469): Direction du vent: 17.05.2018 22:00:00 - 23.05.2018 22:00:00 (CEST)Stockholm/Tullinge, Suède (2469): visibility: 17.05.2018 22:00:00 - 23.05.2018 22:00:00 (CEST)Stockholm/Tullinge, Suède (2469): Quantités de précipitations: 17.05.2018 22:00:00 - 23.05.2018 22:00:00 (CEST)
Date & Time tt [°C] td [°C] ff [km/h] ff [knt] fx [km/h] fx [knt] dd vv [km] rr [mm]
23.05.2018 22:00:00 12,0 4,7 3 1 16 8 N 50 0,0
23.05.2018 21:00:00 15,4 4,7 8 4 21 11 NE 50 0,0
23.05.2018 20:00:00 17,3 4,9 12 6 24 13 NE 50 0,0
23.05.2018 19:00:00 18,6 5,8 14 8 23 12 NNE 46 0,0
23.05.2018 18:00:00 19,6 7,0 16 9 24 13 N 38 0,0
23.05.2018 17:00:00 20,3 7,3 14 7 28 15 NE 40 0,0
23.05.2018 16:00:00 20,1 8,1 14 8 28 15 N 41 0,0
23.05.2018 15:00:00 20,3 8,6 17 9 28 15 N 38 0,0
23.05.2018 14:00:00 20,4 9,3 14 7 29 16 N 34 0,0
23.05.2018 13:00:00 19,3 9,5 18 10 32 17 NW 28 0,0
23.05.2018 12:00:00 19,7 9,6 19 10 29 15 NW 32 0,0
23.05.2018 11:00:00 18,5 9,8 17 9 29 16 NNW 33 0,0
23.05.2018 10:00:00 17,7 9,3 13 7 26 14 NW 29 0,0
23.05.2018 09:00:00 16,3 9,0 14 7 22 12 NW 33 0,0
23.05.2018 08:00:00 14,9 9,3 9 5 22 12 NW 42 0,0
23.05.2018 07:00:00 13,1 9,7 4 2 6 3 WSW 44 0,0
23.05.2018 06:00:00 8,2 6,8 0 0 3 2 N 46 0,0
23.05.2018 05:00:00 5,0 4,7 0 0 2 1 N 6 0,0
23.05.2018 04:00:00 5,3 5,2 0 0 5 3 N 1,6 0,0
23.05.2018 03:00:00 5,7 5,4 0 0 4 2 N 11 0,0
23.05.2018 02:00:00 6,0 5,1 0 0 3 2 N 21 0,0
23.05.2018 01:00:00 6,7 5,5 0 0 5 3 N 50 0,0
23.05.2018 00:00:00 8,8 5,5 0 0 8 4 N 50 0,0
22.05.2018 23:00:00 9,7 5,9 0 0 5 3 N 50 0,0
22.05.2018 22:00:00 12,4 6,0 3 2 11 6 SW 50 0,0
22.05.2018 21:00:00 16,9 6,1 6 4 16 8 SSE 50 0,0
22.05.2018 20:00:00 18,3 6,8 8 4 17 9 SSE 50 0,0
22.05.2018 19:00:00 19,5 5,9 10 5 19 10 SE 50 0,0
22.05.2018 18:00:00 19,8 5,8 11 6 25 14 SSE 48 0,0
22.05.2018 17:00:00 22,4 5,3 13 7 24 13 SSW 36 0,0
22.05.2018 16:00:00 22,2 5,2 12 7 29 16 SSE 33 0,0
22.05.2018 15:00:00 22,4 5,3 15 8 27 14 SSE 43 0,0
22.05.2018 14:00:00 22,5 5,4 15 8 24 13 SE 47 0,0
22.05.2018 13:00:00 22,4 4,9 13 7 24 13 S 41 0,0
22.05.2018 12:00:00 22,4 5,3 13 7 23 12 SE 47 0,0
22.05.2018 11:00:00 21,6 3,7 3 2 13 7 SSW 35 0,0
22.05.2018 10:00:00 20,8 5,6 3 2 10 5 SE 41 0,0
22.05.2018 09:00:00 17,9 4,8 5 3 9 5 SSE 43 0,0
22.05.2018 08:00:00 16,6 7,0 0 0 8 4 N 47 0,0
22.05.2018 07:00:00 11,5 9,9 0 0 1 1 N 34 0,0
22.05.2018 06:00:00 7,3 7,0 0 0 0 0 N 30 0,0
22.05.2018 05:00:00 5,2 5,1 0 0 0 0 N 2,1 0,0
22.05.2018 04:00:00 4,2 4,1 0 0 0 0 N 0,3 0,0
22.05.2018 03:00:00 5,4 5,3 0 0 0 0 N 0,3 0,0
22.05.2018 02:00:00 5,3 5,0 0 0 3 1 N 0,2 0,0
22.05.2018 01:00:00 6,8 6,2 0 0 0 0 N 6 0,0
22.05.2018 00:00:00 8,1 5,9 3 1 8 5 SE 40 0,0
21.05.2018 23:00:00 9,2 6,3 0 0 5 3 N 48 0,0
21.05.2018 22:00:00 13,8 6,6 4 2 9 5 SE 50 0,0
21.05.2018 21:00:00 16,6 5,8 7 4 14 8 SSE 50 0,0
21.05.2018 20:00:00 19,5 8,0 8 5 18 10 SE 50 0,0
21.05.2018 19:00:00 21,7 7,5 10 5 20 11 S 43 0,0
21.05.2018 18:00:00 22,0 7,0 14 7 24 13 SSE 42 0,0
21.05.2018 17:00:00 22,8 6,9 14 8 33 18 SSE 33 0,0
21.05.2018 16:00:00 22,4 7,0 18 10 31 17 SSE 34 0,0
21.05.2018 15:00:00 23,0 6,3 14 8 24 13 S 41 0,0
21.05.2018 14:00:00 23,1 5,9 10 6 26 14 SW 36 0,0
21.05.2018 13:00:00 22,9 7,8 14 7 23 12 WSW 41 0,0
21.05.2018 12:00:00 22,8 8,5 9 5 19 10 SSW 38 0,0
21.05.2018 11:00:00 22,2 7,6 8 5 29 16 WSW 34 0,0
21.05.2018 10:00:00 21,0 7,9 5 3 13 7 NNW 32 0,0
21.05.2018 09:00:00 20,0 8,7 7 4 14 8 N 37 0,0
21.05.2018 08:00:00 18,9 9,7 7 4 11 6 W 44 0,0
21.05.2018 07:00:00 15,3 9,9 0 0 1 0 N 35 0,0
21.05.2018 06:00:00 9,7 7,5 0 0 0 0 N 47 0,0
21.05.2018 05:00:00 5,8 5,8 0 0 0 0 N 5 0,0
21.05.2018 04:00:00 5,6 5,3 0 0 0 0 N 1,3 0,0
21.05.2018 03:00:00 5,9 5,3 0 0 0 0 N 21 0,0
21.05.2018 02:00:00 6,7 6,0 0 0 4 2 N 50 0,0
21.05.2018 01:00:00 7,3 5,9 0 0 6 3 N 50 0,0
21.05.2018 00:00:00 8,4 5,5 4 2 6 3 SE 50 0,0
20.05.2018 23:00:00 10,7 5,7 2 1 9 5 SE 50 0,0
20.05.2018 22:00:00 14,7 5,2 4 2 18 10 S 50 0,0
20.05.2018 21:00:00 16,4 5,4 10 6 19 11 S 50 0,0
20.05.2018 20:00:00 18,7 5,2 13 7 23 12 S 46 0,0
20.05.2018 19:00:00 20,2 5,4 14 8 29 15 S 42 0,0
20.05.2018 18:00:00 21,3 5,2 16 9 25 13 S 34 0,0
20.05.2018 17:00:00 21,8 5,7 15 8 27 15 S 42 0,0
20.05.2018 16:00:00 22,5 5,0 17 9 26 14 SSW 44 0,0
20.05.2018 15:00:00 23,7 5,6 11 6 32 17 WSW 35 0,0
20.05.2018 14:00:00 23,1 1,4 16 9 32 18 W 39 0,0
20.05.2018 13:00:00 23,1 2,5 11 6 28 15 WSW 39 0,0
20.05.2018 12:00:00 21,8 3,5 16 9 29 16 SW 36 0,0
20.05.2018 11:00:00 21,2 4,3 14 8 29 15 W 35 0,0
20.05.2018 10:00:00 20,4 6,3 13 7 25 14 WSW 35 0,0
20.05.2018 09:00:00 19,1 5,5 14 8 23 13 WSW 50 0,0
20.05.2018 08:00:00 17,4 6,3 10 5 15 8 WSW 43 0,0
20.05.2018 07:00:00 15,1 5,6 9 5 14 8 W 46 0,0
20.05.2018 06:00:00 11,5 5,6 8 5 11 6 W 49 0,0
20.05.2018 05:00:00 5,3 3,6 0 0 4 2 N 50 0,0
20.05.2018 04:00:00 5,0 3,0 0 0 3 2 N 50 0,0
20.05.2018 03:00:00 6,6 3,2 0 0 8 4 N 50 0,0
20.05.2018 02:00:00 8,0 3,1 6 4 13 7 WSW 50 0,0
20.05.2018 01:00:00 9,8 3,1 6 3 13 7 SW 50 0,0
20.05.2018 00:00:00 9,9 2,5 5 3 11 6 SSW 50 0,0
19.05.2018 23:00:00 10,4 1,7 6 3 11 6 SW 50 0,0
19.05.2018 22:00:00 11,1 1,6 6 3 13 7 SSW 50 0,0
19.05.2018 21:00:00 12,4 1,1 6 3 25 14 SSW 50 0,0
19.05.2018 20:00:00 13,8 -0,3 13 7 29 15 SSW 50 0,0
19.05.2018 19:00:00 15,5 0,5 14 8 25 13 S 45 0,0
19.05.2018 18:00:00 16,8 2,8 16 9 26 14 SW 44 0,0
19.05.2018 17:00:00 17,2 3,1 18 10 29 16 SW 39 0,0
19.05.2018 16:00:00 17,6 2,3 19 11 32 18 SW 34 0,0
19.05.2018 15:00:00 18,6 2,0 10 6 24 13 WNW 35 0,0
19.05.2018 14:00:00 17,7 0,8 6 3 19 10 WNW 44 0,0
19.05.2018 13:00:00 17,4 1,0 9 5 22 12 N 44 0,0
19.05.2018 12:00:00 17,0 1,4 6 4 23 12 S 47 0,0
19.05.2018 11:00:00 16,3 2,3 12 7 22 12 WNW 33 0,0
19.05.2018 10:00:00 15,4 0,8 10 5 20 11 NW 46 0,0
19.05.2018 09:00:00 14,6 3,1 8 4 12 6 NW 39 0,0
19.05.2018 08:00:00 12,8 3,7 6 3 12 7 NNW 50 0,0
19.05.2018 07:00:00 10,1 4,9 0 0 5 3 N 44 0,0
19.05.2018 06:00:00 2,9 1,0 0 0 0 0 N 46 0,0
19.05.2018 05:00:00 0,0 -0,3 0 0 2 1 N 50 0,0
19.05.2018 04:00:00 0,0 -0,4 0 0 6 3 N 47 0,0
19.05.2018 03:00:00 0,6 -0,1 0 0 3 2 N 50 0,0
19.05.2018 02:00:00 0,6 -0,7 0 0 5 3 N 50 0,0
19.05.2018 01:00:00 2,6 0,5 0 0 4 2 N 50 0,0
19.05.2018 00:00:00 3,5 0,5 0 0 4 2 N 50 0,0
18.05.2018 23:00:00 5,6 0,8 3 1 8 4 W 50 0,0
18.05.2018 22:00:00 8,9 0,6 4 2 17 9 NW 50 0,0
18.05.2018 21:00:00 12,8 0,5 13 7 29 15 N 50 0,0
18.05.2018 20:00:00 14,2 0,8 16 9 28 15 N 48 0,0
18.05.2018 19:00:00 14,9 0,0 20 11 36 20 N 48 0,0
18.05.2018 18:00:00 15,2 -3,7 24 13 37 20 NNE 50 0,0
18.05.2018 17:00:00 16,3 -0,9 16 9 36 19 N 40 0,0
18.05.2018 16:00:00 16,2 -3,3 19 10 41 22 N 39 0,0
18.05.2018 15:00:00 16,4 -1,2 21 11 44 24 N 41 0,0
18.05.2018 14:00:00 16,8 0,0 23 13 41 22 N 48 0,0
18.05.2018 13:00:00 16,3 0,8 22 12 37 20 NNW 28 0,0
18.05.2018 12:00:00 15,3 -0,1 27 14 44 24 N 36 0,0
18.05.2018 11:00:00 15,0 1,9 21 11 40 22 N 30 0,0
18.05.2018 10:00:00 14,2 1,5 22 12 41 22 N 37 0,0
18.05.2018 09:00:00 13,3 1,9 22 12 36 19 N 33 0,0
18.05.2018 08:00:00 12,2 2,6 20 11 37 20 N 36 0,0
18.05.2018 07:00:00 10,7 2,0 16 8 34 18 N 50 0,0
18.05.2018 06:00:00 10,0 1,4 20 11 30 16 NNW 47 0,0
18.05.2018 05:00:00 9,1 1,0 14 8 26 14 NNW 50 0,0
18.05.2018 04:00:00 8,7 0,9 13 7 24 13 NNW 50 0,0
18.05.2018 03:00:00 9,6 0,5 16 9 31 17 N 50 0,0
18.05.2018 02:00:00 10,0 0,9 17 9 34 19 N 50 0,0
18.05.2018 01:00:00 10,0 1,1 16 9 31 17 N 50 0,0
18.05.2018 00:00:00 9,6 1,2 16 9 26 14 N 50 0,0
17.05.2018 23:00:00 10,0 1,4 13 7 29 16 NNW 50 0,0
17.05.2018 22:00:00 10,7 1,8 16 9 27 14 N 50 0,0

tt = Température de l'air
td = dewpoint
ff = Vitesse du vent
fx = gusts
dd = Direction du vent
vv = visibility
rr = Quantités de précipitations

stations d'obs. à proximité